Time;durP1;ratioP1;P1;durP2;ratioP2;P2;SDS_P1;SDS_P2;PMS_P1;PMS_P2;Temp;Humidity;BMP_temperature;BMP_pressure;BME280_temperature;BME280_humidity;BME280_pressure;Samples;Min_cycle;Max_cycle;Signal;HPM_P1;HPM_P2
2022/10/27 00:00:36;;;;;;;13.18;6.97;;;;;;;21.47;59.10;102180.00;4934966;29;20452;-71
2022/10/27 00:03:02;;;;;;;14.38;8.45;;;;;;;21.85;57.51;102187.06;4935002;29;20082;-70
2022/10/27 00:05:27;;;;;;;15.95;7.03;;;;;;;22.17;57.16;102184.16;4949329;28;20038;-69
2022/10/27 00:07:53;;;;;;;15.32;6.95;;;;;;;21.99;56.90;102188.22;4954642;28;20043;-71
2022/10/27 00:10:19;;;;;;;14.98;6.07;;;;;;;22.15;57.21;102189.09;4954092;28;20043;-72
2022/10/27 00:12:44;;;;;;;13.32;7.18;;;;;;;21.50;59.11;102186.84;4951336;28;20480;-71
2022/10/27 00:15:11;;;;;;;12.00;5.80;;;;;;;22.15;56.95;102189.09;4944942;28;20042;-72
2022/10/27 00:17:36;;;;;;;12.85;5.45;;;;;;;21.98;57.44;102192.03;4953754;28;20047;-71
2022/10/27 00:20:02;;;;;;;24.13;6.50;;;;;;;22.10;57.30;102178.09;4954405;28;20023;-71
2022/10/27 00:22:27;;;;;;;10.55;6.05;;;;;;;22.14;56.70;102188.25;4953813;28;20515;-71
2022/10/27 00:24:53;;;;;;;18.88;6.50;;;;;;;21.93;58.03;102186.53;4953799;28;20051;-71
2022/10/27 00:27:18;;;;;;;12.95;5.75;;;;;;;22.18;57.06;102189.34;4953659;28;20408;-71
2022/10/27 00:29:44;;;;;;;10.63;5.20;;;;;;;22.13;56.80;102194.00;4952933;28;20046;-71
2022/10/27 00:32:09;;;;;;;13.05;6.30;;;;;;;21.90;57.56;102199.91;4952636;28;20050;-71
2022/10/27 00:34:35;;;;;;;16.83;6.22;;;;;;;21.39;59.89;102198.78;4934814;29;20036;-70
2022/10/27 00:37:00;;;;;;;11.80;6.53;;;;;;;21.34;60.07;102196.88;4934691;29;20059;-70
2022/10/27 00:39:25;;;;;;;16.90;5.82;;;;;;;21.69;58.85;102188.88;4934326;29;20039;-70
2022/10/27 00:41:51;;;;;;;12.00;7.30;;;;;;;21.56;59.24;102191.25;4934832;29;20136;-71
2022/10/27 00:44:31;;;;;;;15.85;6.75;;;;;;;22.10;57.35;102195.34;4934918;29;20051;-72
2022/10/27 00:47:00;;;;;;;18.80;6.38;;;;;;;21.82;57.93;102201.25;4934948;29;20052;-71
2022/10/27 00:49:29;;;;;;;14.13;6.05;;;;;;;21.81;57.84;102205.09;4934154;29;20519;-71
2022/10/27 00:52:06;;;;;;;15.40;6.78;;;;;;;21.42;59.50;102204.59;4934590;29;20051;-70
2022/10/27 00:54:38;;;;;;;13.52;5.53;;;;;;;21.77;58.15;102209.44;4934710;29;20094;-70
2022/10/27 00:57:05;;;;;;;15.15;6.20;;;;;;;21.77;58.17;102204.78;4934093;29;20102;-71
2022/10/27 00:59:30;;;;;;;15.55;6.15;;;;;;;21.66;58.41;102207.72;4935766;28;20035;-71
2022/10/27 01:01:56;;;;;;;22.42;6.80;;;;;;;21.73;58.55;102214.63;4953963;28;20024;-70
2022/10/27 01:04:38;;;;;;;14.10;6.85;;;;;;;21.32;59.93;102217.34;4947799;28;20050;-70
2022/10/27 01:07:03;;;;;;;21.58;7.55;;;;;;;21.75;59.00;102219.81;4934426;29;20369;-71
2022/10/27 01:09:30;;;;;;;13.90;6.80;;;;;;;21.80;58.10;102204.25;4934368;29;20047;-71
2022/10/27 01:11:56;;;;;;;18.13;8.25;;;;;;;21.65;58.17;102206.91;4952239;28;20395;-72
2022/10/27 01:14:22;;;;;;;16.80;7.35;;;;;;;21.69;57.94;102212.66;4938622;29;20027;-71
2022/10/27 01:17:02;;;;;;;18.95;8.52;;;;;;;21.66;58.49;102213.22;4934439;29;20103;-71
2022/10/27 01:20:02;;;;;;;20.00;7.07;;;;;;;21.35;59.60;102225.84;4934424;29;20484;-71
2022/10/27 01:22:45;;;;;;;17.33;8.30;;;;;;;21.39;59.49;102229.72;4934104;29;20048;-71
2022/10/27 01:25:32;;;;;;;16.10;7.82;;;;;;;21.56;58.69;102230.38;4934003;29;20062;-72
2022/10/27 01:28:22;;;;;;;18.60;8.38;;;;;;;21.59;58.00;102229.84;4934606;29;20349;-77
2022/10/27 01:31:03;;;;;;;14.43;7.47;;;;;;;21.57;58.02;102231.19;4916119;29;20119;-76
2022/10/27 01:33:43;;;;;;;20.92;11.20;;;;;;;21.52;58.30;102229.25;4915896;29;20106;-77
2022/10/27 01:36:23;;;;;;;17.70;7.15;;;;;;;21.54;57.44;102223.53;4928391;29;20499;-75
2022/10/27 01:39:01;;;;;;;12.10;7.32;;;;;;;21.51;57.96;102233.09;4935009;29;20032;-75
2022/10/27 01:41:32;;;;;;;17.33;7.65;;;;;;;21.45;57.95;102228.66;4938084;29;20035;-75
2022/10/27 01:44:03;;;;;;;14.27;7.70;;;;;;;21.29;58.68;102229.63;4938814;29;20063;-78
2022/10/27 01:46:29;;;;;;;17.92;8.05;;;;;;;21.17;58.71;102226.25;4938027;29;20098;-77
2022/10/27 01:48:55;;;;;;;18.55;8.20;;;;;;;21.35;58.46;102234.06;4938132;29;20052;-76
2022/10/27 01:51:20;;;;;;;17.73;7.60;;;;;;;21.12;59.23;102230.88;4937032;29;20036;-76
2022/10/27 01:53:48;;;;;;;16.80;7.25;;;;;;;21.21;58.47;102235.59;4936935;29;20488;-76
2022/10/27 01:56:45;;;;;;;18.35;8.68;;;;;;;21.29;58.32;102240.56;4937842;29;20444;-76
2022/10/27 01:59:10;;;;;;;18.20;7.53;;;;;;;21.29;58.33;102237.84;4936885;29;20047;-76
2022/10/27 02:01:57;;;;;;;17.52;8.65;;;;;;;21.26;58.61;102238.38;4936655;29;20051;-76
2022/10/27 02:04:41;;;;;;;17.90;8.57;;;;;;;21.29;58.34;102228.81;4942839;29;20027;-77
2022/10/27 02:07:06;;;;;;;17.05;8.73;;;;;;;21.25;58.06;102238.63;4956663;28;20047;-75
2022/10/27 02:09:51;;;;;;;14.98;7.80;;;;;;;21.21;58.45;102232.84;4949318;28;20106;-76
2022/10/27 02:12:29;;;;;;;16.45;8.45;;;;;;;21.26;57.95;102245.75;4936888;29;20035;-76
2022/10/27 02:14:58;;;;;;;17.98;8.60;;;;;;;21.26;57.82;102243.84;4936288;29;20032;-76
2022/10/27 02:17:32;;;;;;;19.52;9.50;;;;;;;21.17;58.47;102239.13;4951778;29;20083;-77
2022/10/27 02:20:02;;;;;;;24.00;9.20;;;;;;;21.14;58.68;102245.09;4937255;29;20095;-77
2022/10/27 02:22:30;;;;;;;17.20;9.82;;;;;;;21.14;58.31;102240.47;4936302;29;20050;-75
2022/10/27 02:24:56;;;;;;;22.35;9.30;;;;;;;21.24;58.13;102245.19;4936527;29;20048;-76
2022/10/27 02:27:38;;;;;;;23.10;10.25;;;;;;;21.20;57.98;102238.59;4936677;29;20032;-77
2022/10/27 02:30:05;;;;;;;15.50;9.48;;;;;;;21.19;58.21;102239.69;4936297;29;20032;-76
2022/10/27 02:32:32;;;;;;;17.25;9.98;;;;;;;21.28;58.35;102229.91;4936354;29;20035;-77
2022/10/27 02:34:59;;;;;;;17.00;9.45;;;;;;;21.22;58.17;102231.78;4936294;29;20050;-75
2022/10/27 02:37:30;;;;;;;18.30;10.32;;;;;;;21.26;58.45;102232.91;4936687;29;20091;-76
2022/10/27 02:39:55;;;;;;;24.05;11.30;;;;;;;21.22;58.52;102228.22;4936568;29;20062;-75
2022/10/27 02:42:21;;;;;;;21.33;11.48;;;;;;;21.17;59.06;102226.25;4936776;29;20035;-74
2022/10/27 02:44:46;;;;;;;18.30;9.50;;;;;;;21.40;57.74;102217.69;4936300;29;20040;-76
2022/10/27 02:47:11;;;;;;;24.85;10.48;;;;;;;21.25;58.68;102231.25;4936025;29;20031;-76
2022/10/27 02:49:37;;;;;;;16.77;10.18;;;;;;;21.28;58.68;102224.44;4935928;29;20036;-76
2022/10/27 02:52:03;;;;;;;18.80;10.73;;;;;;;21.30;58.81;102219.53;4935732;29;20044;-75
2022/10/27 02:54:30;;;;;;;16.27;10.88;;;;;;;21.26;58.81;102221.97;4936084;29;20036;-75
2022/10/27 02:56:55;;;;;;;23.92;10.35;;;;;;;21.47;57.95;102221.03;4935899;29;20071;-75
2022/10/27 02:59:20;;;;;;;16.90;10.23;;;;;;;21.34;58.01;102215.19;4936502;29;20036;-75
2022/10/27 03:01:46;;;;;;;15.20;10.02;;;;;;;21.39;57.59;102210.56;4935807;29;20099;-77
2022/10/27 03:04:11;;;;;;;20.02;10.73;;;;;;;21.38;57.73;102208.09;4939998;29;20373;-76
2022/10/27 03:06:36;;;;;;;16.30;9.98;;;;;;;21.35;57.47;102198.50;4941361;28;20046;-75
2022/10/27 03:09:02;;;;;;;22.02;10.65;;;;;;;21.33;57.52;102205.31;4936261;29;20484;-77
2022/10/27 03:11:27;;;;;;;15.77;9.88;;;;;;;21.25;57.94;102197.59;4936080;29;20043;-75
2022/10/27 03:13:53;;;;;;;14.05;10.07;;;;;;;21.32;57.48;102203.69;4936327;29;20027;-76
2022/10/27 03:16:18;;;;;;;25.77;10.30;;;;;;;21.27;57.54;102212.66;4935838;29;20059;-75
2022/10/27 03:18:44;;;;;;;16.25;9.95;;;;;;;21.27;57.41;102201.72;4935560;29;20040;-76
2022/10/27 03:21:09;;;;;;;18.33;10.77;;;;;;;21.21;57.60;102200.03;4935276;29;20040;-77
2022/10/27 03:23:34;;;;;;;17.98;11.05;;;;;;;21.20;57.63;102206.63;4935736;29;20191;-77
2022/10/27 03:26:00;;;;;;;18.65;10.75;;;;;;;21.16;57.33;102204.66;4936196;29;20035;-76
2022/10/27 03:28:29;;;;;;;18.98;11.38;;;;;;;21.13;57.63;102200.53;4935284;29;20095;-77
2022/10/27 03:30:54;;;;;;;18.02;10.02;;;;;;;21.07;58.01;102198.84;4935546;29;20035;-77
2022/10/27 03:33:19;;;;;;;13.27;9.90;;;;;;;21.00;58.09;102187.28;4935132;29;20063;-76
2022/10/27 03:35:45;;;;;;;15.95;12.02;;;;;;;21.03;57.69;102196.91;4935487;29;20039;-77
2022/10/27 03:38:11;;;;;;;24.00;11.48;;;;;;;20.91;58.60;102195.13;4936173;29;20420;-76
2022/10/27 03:40:37;;;;;;;18.73;10.82;;;;;;;21.05;58.11;102200.22;4934879;29;20051;-76
2022/10/27 03:43:03;;;;;;;22.88;11.65;;;;;;;21.03;58.29;102203.19;4935069;29;20400;-76
2022/10/27 03:45:28;;;;;;;24.63;12.95;;;;;;;21.07;58.69;102198.84;4935352;29;20035;-75
2022/10/27 03:48:05;;;;;;;21.38;12.02;;;;;;;21.05;58.15;102198.28;4935249;29;20035;-76
2022/10/27 03:50:31;;;;;;;22.60;11.52;;;;;;;21.07;58.52;102207.03;4934875;29;20043;-77
2022/10/27 03:52:57;;;;;;;25.65;11.40;;;;;;;21.06;58.79;102210.03;4935608;29;20480;-77
2022/10/27 03:55:23;;;;;;;25.13;11.80;;;;;;;21.00;58.63;102204.53;4935015;29;20067;-77
2022/10/27 03:57:49;;;;;;;20.75;11.15;;;;;;;21.14;58.10;102199.47;4934797;29;20048;-76
2022/10/27 04:00:16;;;;;;;21.80;11.73;;;;;;;20.94;58.59;102193.78;4934274;29;20513;-77
2022/10/27 04:02:41;;;;;;;27.20;11.20;;;;;;;21.04;58.31;102206.75;4946710;28;20031;-77
2022/10/27 04:05:07;;;;;;;17.42;11.57;;;;;;;21.10;58.24;102211.19;4954014;28;20050;-77
2022/10/27 04:07:32;;;;;;;24.20;10.75;;;;;;;20.89;59.69;102208.22;4953919;28;20431;-78
2022/10/27 04:09:57;;;;;;;17.83;11.73;;;;;;;21.10;58.58;102209.28;4954099;28;20043;-77
2022/10/27 04:12:23;;;;;;;22.90;11.38;;;;;;;21.12;58.57;102206.28;4954113;28;20038;-76
2022/10/27 04:14:49;;;;;;;24.25;11.10;;;;;;;21.01;58.73;102199.91;4953524;28;20039;-77
2022/10/27 04:17:18;;;;;;;24.55;11.40;;;;;;;21.17;58.34;102204.38;4953674;28;20059;-75
2022/10/27 04:19:43;;;;;;;16.83;11.07;;;;;;;21.15;58.54;102209.28;4953677;28;20043;-77
2022/10/27 04:22:09;;;;;;;18.75;10.55;;;;;;;21.20;58.13;102214.81;4953293;28;20517;-77
2022/10/27 04:24:34;;;;;;;19.15;11.95;;;;;;;21.16;58.22;102210.97;4943461;28;20103;-78
2022/10/27 04:26:59;;;;;;;16.25;10.80;;;;;;;21.20;58.30;102214.81;4934229;29;20040;-76
2022/10/27 04:29:25;;;;;;;27.48;11.85;;;;;;;21.06;58.58;102210.88;4934449;29;20416;-77
2022/10/27 04:31:50;;;;;;;19.98;12.60;;;;;;;21.20;57.92;102212.09;4935198;29;20495;-76
2022/10/27 04:34:16;;;;;;;23.23;12.05;;;;;;;21.16;58.34;102210.97;4934825;29;20032;-78
2022/10/27 04:36:41;;;;;;;25.10;10.63;;;;;;;21.12;58.46;102217.22;4934068;29;20529;-76
2022/10/27 04:39:06;;;;;;;18.15;11.82;;;;;;;21.02;58.55;102217.94;4934403;29;20090;-75
2022/10/27 04:41:32;;;;;;;19.15;11.63;;;;;;;21.28;58.03;102225.28;4934514;29;20039;-77
2022/10/27 04:43:57;;;;;;;20.85;12.80;;;;;;;21.25;57.81;102220.31;4933527;29;20503;-78
2022/10/27 04:46:23;;;;;;;22.33;12.20;;;;;;;21.30;57.99;102219.53;4934231;29;20047;-77
2022/10/27 04:48:48;;;;;;;17.48;11.85;;;;;;;21.31;57.66;102222.00;4934506;29;20047;-76
2022/10/27 04:51:14;;;;;;;22.92;11.77;;;;;;;21.21;58.34;102221.13;4934387;29;20039;-77
2022/10/27 04:53:39;;;;;;;19.63;11.57;;;;;;;21.19;57.98;102217.81;4933962;29;20067;-76
2022/10/27 04:56:05;;;;;;;22.80;12.48;;;;;;;21.26;58.28;102212.94;4933349;29;20028;-77
2022/10/27 04:58:30;;;;;;;16.13;11.23;;;;;;;21.18;58.39;102214.25;4942702;29;20043;-77
2022/10/27 05:00:56;;;;;;;23.65;11.93;;;;;;;21.17;58.47;102214.53;4953275;28;20495;-77
2022/10/27 05:03:21;;;;;;;22.02;12.30;;;;;;;21.22;58.44;102212.66;4953471;28;20035;-76
2022/10/27 05:05:46;;;;;;;17.55;11.70;;;;;;;21.23;58.02;102208.81;4953593;28;20043;-75
2022/10/27 05:08:12;;;;;;;23.13;11.27;;;;;;;21.14;58.18;102215.88;4954123;28;20035;-75
2022/10/27 05:10:38;;;;;;;20.33;11.85;;;;;;;21.18;58.19;102210.69;4951551;28;20039;-76
2022/10/27 05:13:03;;;;;;;15.93;11.52;;;;;;;21.06;58.90;102216.34;4953339;28;20124;-76
2022/10/27 05:15:29;;;;;;;22.23;12.00;;;;;;;21.11;58.30;102208.16;4956016;28;20118;-76
2022/10/27 05:17:54;;;;;;;20.42;12.80;;;;;;;21.18;58.31;102200.59;4956938;28;20042;-75
2022/10/27 05:20:21;;;;;;;20.30;11.65;;;;;;;21.21;58.35;102207.44;4951430;28;20032;-76
2022/10/27 05:22:47;;;;;;;17.25;12.13;;;;;;;21.09;58.65;102212.28;4938444;29;20047;-77
2022/10/27 05:25:12;;;;;;;19.13;11.93;;;;;;;20.91;59.32;102211.53;4938095;29;20512;-76
2022/10/27 05:27:38;;;;;;;22.90;11.60;;;;;;;21.07;58.97;102211.72;4937560;29;20106;-75
2022/10/27 05:30:05;;;;;;;23.23;11.50;;;;;;;21.28;57.91;102202.56;4932637;29;20508;-77
2022/10/27 05:32:30;;;;;;;19.42;11.85;;;;;;;21.35;58.21;102212.19;4918233;29;20040;-75
2022/10/27 05:34:56;;;;;;;18.50;10.52;;;;;;;21.34;57.98;102206.97;4919098;29;20068;-75
2022/10/27 05:37:22;;;;;;;18.50;10.77;;;;;;;21.29;58.12;102218.69;4918723;29;20577;-77
2022/10/27 05:39:47;;;;;;;19.90;11.00;;;;;;;21.20;58.38;102217.56;4918786;29;20058;-77
2022/10/27 05:42:13;;;;;;;17.00;11.15;;;;;;;21.35;57.89;102214.91;4918732;29;20409;-76
2022/10/27 05:44:38;;;;;;;23.42;10.70;;;;;;;21.23;58.23;102214.28;4927927;29;20083;-77
2022/10/27 05:47:04;;;;;;;17.40;11.43;;;;;;;21.31;58.05;102210.22;4928373;29;20027;-76
2022/10/27 05:49:29;;;;;;;17.50;10.90;;;;;;;21.34;57.82;102213.28;4936379;29;20039;-78
2022/10/27 05:51:54;;;;;;;21.25;10.98;;;;;;;21.28;58.41;102218.97;4935795;29;20492;-76
2022/10/27 05:54:20;;;;;;;15.43;10.73;;;;;;;21.33;57.92;102208.88;4931413;29;20032;-78
2022/10/27 05:56:48;;;;;;;19.70;10.50;;;;;;;21.50;57.50;102208.72;4924558;29;20041;-77
2022/10/27 05:59:13;;;;;;;23.40;11.18;;;;;;;21.55;57.99;102212.31;4918993;29;20091;-76
2022/10/27 06:01:38;;;;;;;16.50;10.35;;;;;;;21.78;56.82;102217.34;4918064;29;20421;-77
2022/10/27 06:04:04;;;;;;;20.67;10.20;;;;;;;21.65;57.27;102217.00;4924016;29;20082;-78
2022/10/27 06:06:29;;;;;;;19.30;10.60;;;;;;;21.37;58.11;102209.19;4970477;28;20051;-78
2022/10/27 06:08:55;;;;;;;15.05;10.00;;;;;;;21.40;57.89;102205.94;4955764;28;20062;-77
2022/10/27 06:11:20;;;;;;;16.48;10.05;;;;;;;21.62;57.36;102206.63;4955799;29;20035;-76
2022/10/27 06:13:50;;;;;;;22.13;9.32;;;;;;;21.70;56.96;102209.66;4955371;28;20043;-77
2022/10/27 06:16:15;;;;;;;14.27;10.07;;;;;;;21.23;58.56;102211.53;4929693;28;20080;-79
2022/10/27 06:18:41;;;;;;;12.30;9.00;;;;;;;20.88;59.14;102217.53;4927830;29;20444;-77
2022/10/27 06:21:06;;;;;;;14.02;9.43;;;;;;;21.29;58.27;102213.22;4926688;29;20044;-77
2022/10/27 06:23:32;;;;;;;33.92;10.57;;;;;;;21.20;58.10;102212.09;4934921;29;20031;-77
2022/10/27 06:25:57;;;;;;;15.68;9.65;;;;;;;21.52;57.58;102214.75;4931423;29;20040;-78
2022/10/27 06:28:22;;;;;;;17.42;8.68;;;;;;;21.46;57.24;102210.34;4933744;29;20464;-77
2022/10/27 06:30:48;;;;;;;16.83;8.90;;;;;;;21.56;57.33;102208.47;4935289;29;20044;-77
2022/10/27 06:33:13;;;;;;;15.38;9.70;;;;;;;21.39;57.65;102213.31;4935305;29;20036;-77
2022/10/27 06:35:39;;;;;;;14.05;8.85;;;;;;;21.47;57.46;102211.97;4931398;29;20050;-79
2022/10/27 06:38:04;;;;;;;18.00;9.65;;;;;;;21.26;58.09;102218.41;4917788;29;20032;-79
2022/10/27 06:40:30;;;;;;;17.98;8.82;;;;;;;20.98;58.62;102214.06;4922945;29;20036;-80
2022/10/27 06:42:55;;;;;;;16.73;9.25;;;;;;;21.30;57.56;102208.59;4925872;29;20040;-78
2022/10/27 06:45:20;;;;;;;13.30;8.20;;;;;;;21.16;57.70;102216.44;4926709;29;20055;-80
2022/10/27 06:47:55;;;;;;;12.48;8.80;;;;;;;21.41;57.60;102218.50;4925554;29;20039;-80
2022/10/27 06:50:20;;;;;;;14.57;8.32;;;;;;;21.57;57.12;102217.50;4942511;28;20365;-79
2022/10/27 06:52:46;;;;;;;14.20;8.55;;;;;;;20.99;58.59;102204.78;4926477;29;20047;-80
2022/10/27 06:55:11;;;;;;;15.80;8.55;;;;;;;21.16;58.14;102208.22;4925894;29;20543;-79
2022/10/27 06:57:41;;;;;;;19.42;8.50;;;;;;;20.87;59.38;102204.94;4907334;29;20059;-80
2022/10/27 07:00:08;;;;;;;16.63;9.25;;;;;;;21.44;57.60;102209.78;4924152;29;20035;-79
2022/10/27 07:02:33;;;;;;;16.55;7.32;;;;;;;21.20;58.42;102211.25;4917284;29;20484;-78
2022/10/27 07:04:59;;;;;;;20.55;8.80;;;;;;;21.39;57.73;102209.72;4935987;29;20046;-79
2022/10/27 07:07:24;;;;;;;15.77;8.23;;;;;;;21.33;57.64;102203.41;4954609;28;20200;-79
2022/10/27 07:09:49;;;;;;;12.10;7.72;;;;;;;21.45;56.91;102209.50;4954484;28;20570;-79
2022/10/27 07:12:15;;;;;;;18.13;7.20;;;;;;;21.67;56.89;102215.66;4952733;28;20050;-79
2022/10/27 07:14:40;;;;;;;16.70;8.25;;;;;;;21.41;57.28;102210.28;4935349;29;20043;-79
2022/10/27 07:17:06;;;;;;;18.13;8.30;;;;;;;21.41;57.24;102211.13;4931574;29;20536;-79
2022/10/27 07:19:31;;;;;;;15.07;8.00;;;;;;;21.45;57.14;102206.78;4927781;29;20525;-79
2022/10/27 07:21:56;;;;;;;19.77;9.20;;;;;;;21.45;57.25;102205.94;4927711;29;20417;-78
2022/10/27 07:24:22;;;;;;;27.52;10.20;;;;;;;21.58;56.81;102209.03;4930878;29;20040;-78
2022/10/27 07:26:47;;;;;;;17.70;8.20;;;;;;;21.52;57.12;102201.88;4916054;29;20051;-79
2022/10/27 07:29:13;;;;;;;23.55;9.93;;;;;;;21.33;57.52;102205.31;4932828;29;20016;-79
2022/10/27 07:31:38;;;;;;;20.15;8.40;;;;;;;21.53;57.31;102198.06;4954018;28;20047;-80
2022/10/27 07:34:03;;;;;;;14.48;7.65;;;;;;;21.34;57.61;102205.06;4953605;28;20098;-80
2022/10/27 07:36:29;;;;;;;14.52;8.32;;;;;;;21.19;57.53;102204.16;4968523;28;20098;-80
2022/10/27 07:38:54;;;;;;;15.63;8.73;;;;;;;21.09;58.62;102202.13;4953412;28;20396;-80
2022/10/27 07:41:20;;;;;;;14.60;8.23;;;;;;;21.71;56.39;102211.31;4954329;29;20043;-78
2022/10/27 07:43:47;;;;;;;15.35;7.88;;;;;;;21.38;57.03;102202.63;4953686;28;20047;-79
2022/10/27 07:46:13;;;;;;;16.38;8.10;;;;;;;21.40;57.17;102209.50;4952830;28;20506;-79
2022/10/27 07:48:38;;;;;;;14.95;7.65;;;;;;;21.07;58.39;102215.25;4934480;29;20039;-78
2022/10/27 07:51:04;;;;;;;20.17;10.18;;;;;;;21.67;56.43;102207.47;4934093;29;20039;-79
2022/10/27 07:53:29;;;;;;;19.27;8.25;;;;;;;21.75;56.83;102206.13;4927825;29;20039;-79
2022/10/27 07:55:56;;;;;;;13.77;7.07;;;;;;;21.77;56.23;102199.31;4922332;29;20051;-77
2022/10/27 07:58:22;;;;;;;13.95;7.53;;;;;;;21.59;57.08;102207.13;4924981;29;20048;-78
2022/10/27 08:00:47;;;;;;;18.08;7.78;;;;;;;21.44;57.39;102198.84;4924930;29;20063;-78
2022/10/27 08:03:21;;;;;;;19.17;8.07;;;;;;;21.54;56.83;102205.19;4923371;29;20036;-79
2022/10/27 08:05:47;;;;;;;20.20;9.15;;;;;;;21.82;56.05;102213.03;4930221;29;20039;-78
2022/10/27 08:08:14;;;;;;;12.00;7.18;;;;;;;21.46;57.38;102204.88;4931157;29;20385;-80
2022/10/27 08:10:41;;;;;;;15.90;8.25;;;;;;;21.46;57.01;102208.41;4928166;29;20191;-77
2022/10/27 08:13:08;;;;;;;16.63;7.28;;;;;;;21.33;58.02;102203.41;4919569;29;20127;-78
2022/10/27 08:15:34;;;;;;;16.75;8.35;;;;;;;21.66;56.61;102211.28;4920902;29;20036;-77
2022/10/27 08:18:02;;;;;;;18.52;8.93;;;;;;;21.79;55.67;102208.06;4934350;29;20549;-78
2022/10/27 08:20:31;;;;;;;16.88;7.68;;;;;;;21.67;56.20;102209.38;4924160;29;20084;-77
2022/10/27 08:23:04;;;;;;;13.50;7.15;;;;;;;22.02;55.30;102212.31;4921357;29;20036;-78
2022/10/27 08:25:30;;;;;;;19.65;8.43;;;;;;;21.96;55.56;102202.41;4925269;29;20047;-77
2022/10/27 08:27:56;;;;;;;18.20;7.75;;;;;;;22.10;55.56;102203.56;4925810;29;20036;-77
2022/10/27 08:30:24;;;;;;;19.48;8.18;;;;;;;22.20;55.45;102206.34;4919857;29;20492;-78
2022/10/27 08:32:55;;;;;;;20.50;7.50;;;;;;;21.93;56.60;102205.69;4922894;29;20160;-76
2022/10/27 08:35:20;;;;;;;17.75;8.40;;;;;;;22.15;55.23;102205.50;4930901;29;20020;-78
2022/10/27 08:37:46;;;;;;;13.25;7.97;;;;;;;22.27;55.50;102195.16;4919923;29;20043;-80
2022/10/27 08:40:11;;;;;;;16.08;6.93;;;;;;;22.28;55.14;102185.81;4917375;29;20110;-79
2022/10/27 08:42:42;;;;;;;14.70;7.32;;;;;;;22.50;55.04;102205.59;4922776;29;20028;-79
2022/10/27 08:45:18;;;;;;;12.80;6.70;;;;;;;22.60;54.71;102205.66;4921350;29;20027;-77
2022/10/27 08:47:44;;;;;;;15.18;8.55;;;;;;;22.43;55.23;102213.22;4924318;29;20401;-76
2022/10/27 08:50:21;;;;;;;15.70;6.60;;;;;;;22.52;55.03;102204.25;4927610;29;20155;-76
2022/10/27 08:52:57;;;;;;;22.85;7.40;;;;;;;22.73;54.61;102207.84;4914467;29;20044;-77
2022/10/27 08:55:33;;;;;;;14.70;8.07;;;;;;;22.75;54.32;102200.16;4925955;29;20240;-75
2022/10/27 08:58:02;;;;;;;15.07;7.20;;;;;;;22.88;54.34;102198.81;4924506;29;20084;-76
2022/10/27 09:00:43;;;;;;;15.90;7.55;;;;;;;22.86;54.63;102195.53;4923916;29;20135;-75
2022/10/27 09:03:31;;;;;;;;;;;;;;;23.01;53.70;102196.34;4921449;29;20484;-77
2022/10/27 09:06:29;;;;;;;15.73;6.65;;;;;;;23.21;53.50;102192.75;4931658;29;20014;-78
2022/10/27 09:09:08;;;;;;;15.02;5.70;;;;;;;23.00;53.87;102199.34;4916811;29;20032;-72
2022/10/27 09:11:47;;;;;;;11.73;5.72;;;;;;;23.28;53.30;102198.78;4925737;29;20043;-78
2022/10/27 09:14:25;;;;;;;27.95;6.45;;;;;;;23.65;52.45;102196.53;4933750;29;20024;-76
2022/10/27 09:16:55;;;;;;;16.40;6.30;;;;;;;23.86;51.96;102197.28;4933433;29;20496;-76
2022/10/27 09:19:30;;;;;;;21.98;7.20;;;;;;;23.78;52.60;102190.44;4933222;29;20110;-78
2022/10/27 09:21:55;;;;;;;14.95;5.95;;;;;;;23.47;52.64;102186.97;4942716;29;20039;-77
2022/10/27 09:24:24;;;;;;;16.10;5.47;;;;;;;23.72;51.97;102182.50;4952570;28;20031;-77
2022/10/27 09:26:52;;;;;;;18.08;5.25;;;;;;;23.81;51.79;102178.91;4952404;28;20046;-76
2022/10/27 09:29:22;;;;;;;12.32;5.15;;;;;;;23.92;51.61;102166.75;4952516;28;20027;-79
2022/10/27 09:31:55;;;;;;;18.50;5.43;;;;;;;24.49;49.99;102173.63;4936863;28;20059;-78
2022/10/27 09:34:39;;;;;;;17.25;5.50;;;;;;;23.87;51.55;102166.78;4933120;29;20075;-77
2022/10/27 09:37:15;;;;;;;12.65;4.53;;;;;;;24.50;50.19;102159.56;4929063;28;20040;-77
2022/10/27 09:39:45;;;;;;;14.30;5.22;;;;;;;24.78;49.60;102155.25;4915116;29;20048;-77
2022/10/27 09:42:11;;;;;;;13.23;4.82;;;;;;;24.46;49.88;102160.44;4925877;29;20073;-71
2022/10/27 09:44:36;;;;;;;16.00;4.50;;;;;;;24.86;49.69;102141.72;4923961;28;20027;-71
2022/10/27 09:47:02;;;;;;;12.63;4.65;;;;;;;25.04;49.70;102143.72;4926379;29;20519;-73
2022/10/27 09:49:35;;;;;;;13.85;5.22;;;;;;;24.60;51.09;102139.44;4931833;28;20440;-70
2022/10/27 09:52:14;;;;;;;12.98;4.82;;;;;;;24.95;49.75;102148.22;4927126;28;20168;-71
2022/10/27 09:54:49;;;;;;;16.83;4.07;;;;;;;24.85;49.77;102136.50;4924005;28;20044;-70
2022/10/27 09:57:19;;;;;;;12.57;4.07;;;;;;;25.13;48.63;102138.44;4917264;29;20044;-70
2022/10/27 10:00:05;;;;;;;12.95;4.15;;;;;;;24.98;49.00;102136.63;4928592;28;20036;-70
2022/10/27 10:02:33;;;;;;;15.23;4.00;;;;;;;25.17;48.21;102134.81;4932911;29;20051;-71
2022/10/27 10:05:01;;;;;;;10.63;3.30;;;;;;;25.13;48.46;102146.69;4934692;29;20468;-69
2022/10/27 10:07:39;;;;;;;8.63;3.63;;;;;;;25.21;48.16;102143.28;4931861;28;20055;-70
2022/10/27 10:10:19;;;;;;;9.73;3.10;;;;;;;25.00;48.70;102139.13;4929641;29;20038;-70
2022/10/27 10:12:44;;;;;;;17.90;3.50;;;;;;;25.60;47.07;102143.16;4929597;29;20040;-70
2022/10/27 10:15:10;;;;;;;8.45;3.22;;;;;;;25.78;46.63;102136.88;4931504;29;20039;-70
2022/10/27 10:17:37;;;;;;;8.57;3.30;;;;;;;26.08;46.04;102122.72;4929858;29;20130;-71
2022/10/27 10:20:05;;;;;;;11.30;2.97;;;;;;;25.63;46.95;102126.06;4925356;29;20371;-71
2022/10/27 10:22:34;;;;;;;10.88;3.08;;;;;;;25.19;47.85;102118.00;4931824;29;20039;-71
2022/10/27 10:25:29;;;;;;;10.80;3.28;;;;;;;25.16;48.19;102110.31;4931807;28;20381;-72
2022/10/27 10:27:58;;;;;;;9.00;2.88;;;;;;;25.78;46.69;102118.41;4929981;29;20388;-70
2022/10/27 10:30:34;;;;;;;9.15;2.40;;;;;;;25.74;46.83;102105.53;4928901;28;20059;-73
2022/10/27 10:33:03;;;;;;;11.77;3.50;;;;;;;25.68;47.24;102117.72;4931935;29;20046;-72
2022/10/27 10:35:49;;;;;;;4.93;2.58;;;;;;;25.65;47.04;102105.34;4931421;28;20032;-71
2022/10/27 10:38:23;;;;;;;5.05;2.40;;;;;;;25.77;46.73;102099.41;4931363;29;20024;-72
2022/10/27 10:41:02;;;;;;;9.32;2.70;;;;;;;25.93;46.42;102100.84;4933188;29;20055;-71
2022/10/27 10:43:28;;;;;;;7.40;2.50;;;;;;;25.80;46.73;102098.84;4933420;29;20064;-72
2022/10/27 10:45:54;;;;;;;7.50;2.92;;;;;;;25.72;46.98;102105.00;4935587;29;20032;-71
2022/10/27 10:48:25;;;;;;;11.30;2.42;;;;;;;25.66;47.17;102107.00;4932673;29;20519;-73
2022/10/27 10:50:51;;;;;;;;;;;;;;;25.76;47.01;102109.63;4935795;29;20044;-71
2022/10/27 10:53:24;;;;;;;7.43;2.63;;;;;;;26.25;45.63;102091.84;4934573;29;19926;-72
2022/10/27 10:55:51;;;;;;;5.63;2.35;;;;;;;26.35;45.92;102086.19;4934342;29;20043;-70
2022/10/27 10:58:20;;;;;;;6.35;2.50;;;;;;;26.19;46.22;102085.59;4933081;29;20072;-69
2022/10/27 11:01:00;;;;;;;9.77;2.50;;;;;;;26.06;46.50;102084.41;4931349;29;20039;-80
2022/10/27 11:03:30;;;;;;;5.40;2.13;;;;;;;26.34;45.60;102076.28;4926016;29;20405;-78
2022/10/27 11:06:03;;;;;;;6.72;2.08;;;;;;;26.12;45.98;102065.88;4938164;29;20126;-79
2022/10/27 11:08:40;;;;;;;4.65;1.88;;;;;;;26.16;45.63;102066.94;4936279;29;20031;-78
2022/10/27 11:11:12;;;;;;;6.63;2.55;;;;;;;26.30;45.20;102044.94;4936970;29;20027;-79
2022/10/27 11:13:42;;;;;;;9.55;1.92;;;;;;;26.42;44.98;102045.25;4935058;29;20143;-80
2022/10/27 11:16:10;;;;;;;6.28;2.33;;;;;;;26.64;45.08;102048.16;4922629;29;20481;-79
2022/10/27 11:18:50;;;;;;;4.75;2.03;;;;;;;26.85;43.85;102033.72;4916818;29;20151;-79
2022/10/27 11:21:37;;;;;;;6.35;2.03;;;;;;;26.48;45.36;102036.59;4917204;29;20646;-75
2022/10/27 11:24:13;;;;;;;4.93;1.83;;;;;;;26.19;45.65;102037.94;4917091;29;20091;-78